Time;durP1;ratioP1;P1;durP2;ratioP2;P2;SDS_P1;SDS_P2;PMS_P1;PMS_P2;Temp;Humidity;BMP_temperature;BMP_pressure;BME280_temperature;BME280_humidity;BME280_pressure;Samples;Min_cycle;Max_cycle;Signal;HPM_P1;HPM_P2
2021/04/28 00:01:15;;;;;;;13.55;5.93;;;;;;;;;;5109829;28;20026;-65
2021/04/28 00:03:41;;;;;;;11.63;5.28;;;;;;;;;;5108877;28;20110;-65
2021/04/28 00:07:59;;;;;;;12.48;6.63;;;;;;;;;;5109970;27;20181;-64
2021/04/28 00:12:26;;;;;;;12.63;7.13;;;;;;;;;;5110716;27;20426;-64
2021/04/28 00:16:07;;;;;;;11.65;6.60;;;;;;;;;;5069526;28;20379;-66
2021/04/28 00:18:34;;;;;;;14.27;7.05;;;;;;;;;;5069999;28;20074;-64
2021/04/28 00:21:00;;;;;;;11.30;6.68;;;;;;;;;;5069845;28;20032;-64
2021/04/28 00:23:26;;;;;;;11.00;6.22;;;;;;;;;;5069541;28;20023;-64
2021/04/28 00:28:23;;;;;;;11.85;6.60;;;;;;;;;;5110523;27;20381;-65
2021/04/28 00:30:49;;;;;;;13.15;7.35;;;;;;;;;;5110157;28;20103;-65
2021/04/28 00:33:15;;;;;;;12.38;6.97;;;;;;;;;;5110629;28;20442;-65
2021/04/28 00:35:41;;;;;;;11.55;6.63;;;;;;;;;;5110103;28;20023;-65
2021/04/28 00:38:07;;;;;;;15.55;6.82;;;;;;;;;;5110233;28;20077;-65
2021/04/28 00:41:08;;;;;;;9.13;4.97;;;;;;;;;;5110458;27;20437;-67
2021/04/28 00:43:35;;;;;;;9.88;6.07;;;;;;;;;;5110131;28;20388;-64
2021/04/28 00:46:01;;;;;;;10.57;5.63;;;;;;;;;;5110371;28;20020;-64
2021/04/28 00:49:21;;;;;;;12.07;6.18;;;;;;;;;;5110416;27;20385;-65
2021/04/28 00:51:48;;;;;;;9.20;5.32;;;;;;;;;;5108927;28;20453;-65
2021/04/28 00:54:14;;;;;;;9.25;5.97;;;;;;;;;;5110880;28;20468;-65
2021/04/28 00:56:42;;;;;;;9.27;5.18;;;;;;;;;;5110011;28;20023;-65
2021/04/28 00:59:08;;;;;;;8.75;5.10;;;;;;;;;;5110306;28;20094;-66
2021/04/28 01:03:09;;;;;;;8.05;3.85;;;;;;;;;;5110498;27;20385;-67
2021/04/28 01:05:35;;;;;;;8.43;5.10;;;;;;;;;;5108692;28;20613;-64
2021/04/28 01:08:02;;;;;;;10.70;5.30;;;;;;;;;;5110428;28;20495;-65
2021/04/28 01:10:29;;;;;;;9.60;4.72;;;;;;;;;;5110581;28;20020;-65
2021/04/28 01:12:56;;;;;;;7.75;4.47;;;;;;;;;;5110075;28;20099;-64
2021/04/28 01:15:54;;;;;;;8.35;4.45;;;;;;;;;;5130955;27;20116;-64
2021/04/28 01:18:22;;;;;;;10.23;6.00;;;;;;;;;;5110067;28;20024;-64
2021/04/28 01:20:48;;;;;;;9.63;5.55;;;;;;;;;;5110386;28;20024;-65
2021/04/28 01:23:18;;;;;;;9.93;5.45;;;;;;;;;;5110367;28;20527;-65
2021/04/28 01:25:45;;;;;;;7.72;4.95;;;;;;;;;;5109806;28;20026;-65
2021/04/28 01:28:15;;;;;;;9.43;5.82;;;;;;;;;;5092064;28;20031;-65
2021/04/28 01:30:47;;;;;;;11.10;6.07;;;;;;;;;;5110523;28;20030;-65
2021/04/28 01:33:16;;;;;;;12.57;5.38;;;;;;;;;;5109924;28;20023;-65
2021/04/28 01:35:44;;;;;;;9.07;4.93;;;;;;;;;;5109950;28;20039;-65
2021/04/28 01:38:11;;;;;;;8.98;5.75;;;;;;;;;;5109988;28;20051;-65
2021/04/28 01:40:37;;;;;;;10.10;5.90;;;;;;;;;;5109775;28;20415;-65
2021/04/28 01:43:04;;;;;;;7.72;4.80;;;;;;;;;;5109931;28;20472;-65
2021/04/28 01:45:34;;;;;;;11.05;5.50;;;;;;;;;;5109942;28;20023;-65
2021/04/28 01:48:01;;;;;;;8.75;5.78;;;;;;;;;;5109515;28;20074;-65
2021/04/28 01:50:27;;;;;;;10.10;5.82;;;;;;;;;;5091765;28;20023;-65
2021/04/28 01:52:54;;;;;;;8.80;5.03;;;;;;;;;;5109970;28;20165;-65
2021/04/28 01:55:20;;;;;;;8.60;5.47;;;;;;;;;;5110120;28;20073;-65
2021/04/28 01:57:47;;;;;;;9.88;5.75;;;;;;;;;;5109743;28;20024;-65
2021/04/28 02:00:15;;;;;;;13.50;6.18;;;;;;;;;;5091092;28;20027;-65
2021/04/28 02:02:42;;;;;;;11.40;6.55;;;;;;;;;;5109669;28;20027;-65
2021/04/28 02:05:08;;;;;;;11.32;5.88;;;;;;;;;;5109562;28;20495;-65
2021/04/28 02:07:35;;;;;;;9.43;5.95;;;;;;;;;;5109121;28;20024;-65
2021/04/28 02:10:01;;;;;;;8.98;5.30;;;;;;;;;;5109540;28;20544;-65
2021/04/28 02:12:28;;;;;;;12.00;6.88;;;;;;;;;;5091407;28;20467;-65
2021/04/28 02:14:55;;;;;;;10.77;5.88;;;;;;;;;;5096350;28;20044;-65
2021/04/28 02:17:22;;;;;;;10.18;6.25;;;;;;;;;;5089050;28;20027;-65
2021/04/28 02:19:48;;;;;;;10.65;6.47;;;;;;;;;;5071036;28;20038;-65
2021/04/28 02:22:15;;;;;;;9.25;5.90;;;;;;;;;;5088543;28;20016;-65
2021/04/28 02:24:42;;;;;;;10.57;6.47;;;;;;;;;;5088854;28;20069;-65
2021/04/28 02:27:08;;;;;;;14.00;6.65;;;;;;;;;;5057655;28;20028;-65
2021/04/28 02:29:35;;;;;;;10.68;6.57;;;;;;;;;;5074973;28;20024;-65
2021/04/28 02:32:01;;;;;;;9.98;5.90;;;;;;;;;;5057471;28;20024;-65
2021/04/28 02:34:28;;;;;;;12.10;5.85;;;;;;;;;;5075184;28;20494;-65
2021/04/28 02:36:56;;;;;;;9.80;5.88;;;;;;;;;;5056755;28;20100;-65
2021/04/28 02:39:29;;;;;;;8.93;5.68;;;;;;;;;;5075087;28;20499;-65
2021/04/28 02:41:55;;;;;;;;;;;;;;;;;;5075589;28;20028;-65
2021/04/28 02:44:24;;;;;;;10.95;5.75;;;;;;;;;;5056632;28;19904;-65
2021/04/28 02:46:53;;;;;;;12.30;6.38;;;;;;;;;;5057023;28;20032;-65
2021/04/28 02:49:20;;;;;;;10.93;6.35;;;;;;;;;;5074592;28;20484;-65
2021/04/28 02:51:47;;;;;;;12.32;6.47;;;;;;;;;;5075110;28;20035;-67
2021/04/28 02:54:13;;;;;;;11.15;6.07;;;;;;;;;;5074876;28;20550;-65
2021/04/28 02:56:39;;;;;;;11.80;7.28;;;;;;;;;;5074316;28;20074;-66
2021/04/28 02:59:06;;;;;;;11.27;6.22;;;;;;;;;;5056785;28;20469;-66
2021/04/28 03:01:32;;;;;;;12.18;6.70;;;;;;;;;;5056735;28;20400;-65
2021/04/28 03:03:59;;;;;;;12.15;6.47;;;;;;;;;;5074377;28;20055;-65
2021/04/28 03:06:25;;;;;;;10.50;5.47;;;;;;;;;;5074861;28;20021;-65
2021/04/28 03:08:51;;;;;;;12.05;6.00;;;;;;;;;;5074659;28;20024;-65
2021/04/28 03:11:18;;;;;;;11.40;6.38;;;;;;;;;;5074354;28;20481;-66
2021/04/28 03:13:44;;;;;;;9.68;5.45;;;;;;;;;;5074277;28;20404;-66
2021/04/28 03:16:12;;;;;;;11.73;6.32;;;;;;;;;;5074478;28;20481;-66
2021/04/28 03:18:39;;;;;;;14.30;8.05;;;;;;;;;;5074014;28;20025;-65
2021/04/28 03:21:07;;;;;;;12.63;8.00;;;;;;;;;;5074357;28;20025;-66
2021/04/28 03:23:33;;;;;;;17.88;9.38;;;;;;;;;;5074542;28;20077;-65
2021/04/28 03:25:59;;;;;;;18.40;9.10;;;;;;;;;;5055967;28;20020;-66
2021/04/28 03:28:26;;;;;;;13.38;7.45;;;;;;;;;;5074298;28;20054;-66
2021/04/28 03:30:52;;;;;;;12.32;7.72;;;;;;;;;;5074316;28;20029;-65
2021/04/28 03:33:18;;;;;;;11.95;7.22;;;;;;;;;;5073737;28;20024;-65
2021/04/28 03:35:45;;;;;;;14.48;6.65;;;;;;;;;;5073899;28;20062;-66
2021/04/28 03:38:11;;;;;;;10.90;6.10;;;;;;;;;;5072921;28;20087;-65
2021/04/28 03:40:38;;;;;;;9.73;6.43;;;;;;;;;;5073477;28;20035;-66
2021/04/28 03:43:04;;;;;;;9.98;5.38;;;;;;;;;;5056061;28;20017;-65
2021/04/28 03:45:31;;;;;;;8.45;4.93;;;;;;;;;;5073646;28;20020;-66
2021/04/28 03:47:57;;;;;;;12.52;6.30;;;;;;;;;;5073830;28;20017;-65
2021/04/28 03:50:24;;;;;;;9.48;5.60;;;;;;;;;;5073946;28;20095;-65
2021/04/28 03:52:50;;;;;;;9.63;5.13;;;;;;;;;;5073491;28;20021;-66
2021/04/28 03:55:16;;;;;;;10.02;5.95;;;;;;;;;;5055755;28;20033;-65
2021/04/28 03:57:42;;;;;;;11.40;6.43;;;;;;;;;;5073603;28;20026;-65
2021/04/28 04:00:09;;;;;;;10.43;5.53;;;;;;;;;;5073198;28;20028;-66
2021/04/28 04:02:36;;;;;;;9.38;4.75;;;;;;;;;;5073491;28;20020;-66
2021/04/28 04:05:02;;;;;;;12.50;6.13;;;;;;;;;;5055512;28;20029;-65
2021/04/28 04:07:28;;;;;;;9.77;6.20;;;;;;;;;;5073072;28;20536;-65
2021/04/28 04:09:54;;;;;;;11.18;7.38;;;;;;;;;;5073406;28;20079;-65
2021/04/28 04:12:21;;;;;;;10.23;6.20;;;;;;;;;;5073799;28;20369;-65
2021/04/28 04:14:47;;;;;;;9.43;5.28;;;;;;;;;;5072618;28;20048;-66
2021/04/28 04:17:13;;;;;;;11.80;5.00;;;;;;;;;;5055328;28;20078;-66
2021/04/28 04:19:39;;;;;;;11.75;5.63;;;;;;;;;;5055202;28;20024;-66
2021/04/28 04:22:05;;;;;;;10.52;6.07;;;;;;;;;;5072666;28;20528;-66
2021/04/28 04:24:31;;;;;;;10.45;5.05;;;;;;;;;;5073003;28;20469;-65
2021/04/28 04:26:58;;;;;;;10.68;5.35;;;;;;;;;;5073023;28;20036;-66
2021/04/28 04:29:24;;;;;;;9.93;5.45;;;;;;;;;;5072701;28;20024;-65
2021/04/28 04:31:50;;;;;;;14.38;6.25;;;;;;;;;;5073191;28;20063;-65
2021/04/28 04:34:16;;;;;;;9.50;5.05;;;;;;;;;;5072856;28;20059;-65
2021/04/28 04:36:43;;;;;;;7.45;4.50;;;;;;;;;;5072567;28;20437;-66
2021/04/28 04:39:09;;;;;;;11.98;6.57;;;;;;;;;;5072844;28;20024;-66
2021/04/28 04:41:36;;;;;;;10.82;6.15;;;;;;;;;;5072849;28;20033;-66
2021/04/28 04:44:02;;;;;;;10.95;5.85;;;;;;;;;;5072427;28;20358;-65
2021/04/28 04:46:28;;;;;;;12.05;6.82;;;;;;;;;;5054964;28;20028;-66
2021/04/28 04:48:54;;;;;;;12.05;6.97;;;;;;;;;;5072298;28;20440;-65
2021/04/28 04:51:20;;;;;;;10.52;6.68;;;;;;;;;;5072942;28;20028;-65
2021/04/28 04:53:46;;;;;;;13.85;6.72;;;;;;;;;;5054767;28;20027;-66
2021/04/28 04:56:13;;;;;;;10.48;5.43;;;;;;;;;;5054238;28;20494;-66
2021/04/28 04:58:39;;;;;;;8.73;4.90;;;;;;;;;;5060453;28;20017;-63
2021/04/28 05:01:05;;;;;;;10.73;6.28;;;;;;;;;;5057780;28;20043;-64
2021/04/28 05:03:31;;;;;;;11.60;6.50;;;;;;;;;;5048998;28;20021;-63
2021/04/28 05:05:57;;;;;;;12.32;6.97;;;;;;;;;;5090406;28;20020;-65
2021/04/28 05:08:24;;;;;;;11.95;6.07;;;;;;;;;;5072234;28;20016;-65
2021/04/28 05:10:50;;;;;;;10.23;5.57;;;;;;;;;;5079450;28;20107;-64
2021/04/28 05:13:16;;;;;;;9.85;4.88;;;;;;;;;;5072325;28;20059;-65
2021/04/28 05:15:42;;;;;;;13.02;6.72;;;;;;;;;;5086388;28;20056;-65
2021/04/28 05:18:08;;;;;;;14.50;7.43;;;;;;;;;;5090209;28;20020;-64
2021/04/28 05:20:35;;;;;;;11.43;7.20;;;;;;;;;;5090890;28;20034;-65
2021/04/28 05:25:33;;;;;;;11.27;5.45;;;;;;;;;;5068230;28;20445;-67
2021/04/28 05:28:00;;;;;;;9.65;5.35;;;;;;;;;;5069320;28;20070;-64
2021/04/28 05:30:26;;;;;;;12.45;6.40;;;;;;;;;;5069016;28;20078;-66
2021/04/28 05:32:53;;;;;;;11.10;6.30;;;;;;;;;;5068141;28;20032;-66
2021/04/28 05:35:19;;;;;;;13.52;5.32;;;;;;;;;;5069310;28;20113;-68
2021/04/28 05:39:01;;;;;;;12.40;6.40;;;;;;;;;;5106938;27;20430;-65
2021/04/28 05:41:28;;;;;;;13.57;6.47;;;;;;;;;;5107911;28;20123;-68
2021/04/28 05:43:54;;;;;;;12.38;5.70;;;;;;;;;;5109394;28;20054;-69
2021/04/28 05:48:11;;;;;;;11.32;4.47;;;;;;;;;;5067096;28;20456;-66
2021/04/28 05:51:00;;;;;;;10.90;5.13;;;;;;;;;;5109818;27;20428;-67
2021/04/28 05:53:27;;;;;;;9.32;5.10;;;;;;;;;;5107361;28;20046;-67
2021/04/28 05:55:53;;;;;;;9.20;4.90;;;;;;;;;;5085514;28;20052;-71
2021/04/28 05:58:19;;;;;;;8.52;4.80;;;;;;;;;;5090782;28;20512;-69
2021/04/28 06:00:46;;;;;;;9.40;4.45;;;;;;;;;;5092961;28;20036;-70
2021/04/28 06:03:12;;;;;;;10.43;5.72;;;;;;;;;;5109306;28;20020;-70
2021/04/28 06:05:38;;;;;;;12.00;6.10;;;;;;;;;;5107538;28;20034;-70
2021/04/28 06:08:59;;;;;;;9.93;4.97;;;;;;;;;;5104262;27;20361;-69
2021/04/28 06:11:25;;;;;;;15.95;5.45;;;;;;;;;;5109843;28;20468;-71
2021/04/28 06:15:30;;;;;;;14.23;4.55;;;;;;;;;;5109808;27;20938;-69
2021/04/28 06:17:56;;;;;;;9.50;4.50;;;;;;;;;;5110099;28;20045;-70
2021/04/28 06:21:45;;;;;;;9.20;4.80;;;;;;;;;;5049075;28;20462;-70
2021/04/28 06:24:11;;;;;;;8.32;4.72;;;;;;;;;;5049144;28;20029;-72
2021/04/28 06:30:10;;;;;;;9.38;4.75;;;;;;;;;;5066157;28;20791;-69
2021/04/28 06:32:58;;;;;;;11.10;5.25;;;;;;;;;;5049101;28;20458;-70
2021/04/28 06:35:24;;;;;;;8.18;4.93;;;;;;;;;;5048651;28;20076;-70
2021/04/28 06:37:50;;;;;;;11.93;5.25;;;;;;;;;;5049152;28;20096;-71
2021/04/28 06:40:17;;;;;;;8.52;4.72;;;;;;;;;;5049143;28;20025;-69
2021/04/28 06:42:43;;;;;;;7.50;4.35;;;;;;;;;;5048893;28;20079;-70
2021/04/28 06:45:10;;;;;;;12.85;4.43;;;;;;;;;;5048491;28;20164;-70
2021/04/28 06:49:11;;;;;;;8.10;4.82;;;;;;;;;;5150056;27;20443;-67
2021/04/28 06:51:37;;;;;;;8.77;4.65;;;;;;;;;;5147918;27;20035;-70
2021/04/28 06:54:04;;;;;;;17.80;4.97;;;;;;;;;;5148466;27;20018;-65
2021/04/28 06:56:31;;;;;;;10.10;4.28;;;;;;;;;;5148196;27;20023;-72
2021/04/28 07:01:10;;;;;;;8.00;4.20;;;;;;;;;;5128716;27;20385;-70
2021/04/28 07:03:37;;;;;;;6.18;3.45;;;;;;;;;;5120040;27;20035;-70
2021/04/28 07:06:03;;;;;;;6.35;3.63;;;;;;;;;;5105636;28;20042;-69
2021/04/28 07:08:30;;;;;;;9.95;4.10;;;;;;;;;;5106055;28;20603;-71
2021/04/28 07:10:56;;;;;;;8.20;3.55;;;;;;;;;;5103891;28;20715;-69
2021/04/28 07:13:22;;;;;;;5.32;3.10;;;;;;;;;;5107801;28;20023;-70
2021/04/28 07:17:25;;;;;;;14.63;5.70;;;;;;;;;;5107201;27;20450;-69
2021/04/28 07:19:52;;;;;;;11.05;5.82;;;;;;;;;;5107172;28;20369;-69
2021/04/28 07:22:18;;;;;;;8.73;4.50;;;;;;;;;;5107903;28;20027;-70
2021/04/28 07:25:11;;;;;;;7.88;3.72;;;;;;;;;;5067712;28;20445;-68
2021/04/28 07:27:39;;;;;;;7.72;3.95;;;;;;;;;;5067883;28;20103;-69
2021/04/28 07:31:35;;;;;;;8.48;3.25;;;;;;;;;;5068506;28;20387;-68
2021/04/28 07:34:01;;;;;;;5.85;3.20;;;;;;;;;;5069055;28;20032;-68
2021/04/28 07:38:41;;;;;;;11.43;4.60;;;;;;;;;;5068290;28;20417;-69
2021/04/28 07:41:11;;;;;;;8.88;3.90;;;;;;;;;;5069125;28;20362;-67
2021/04/28 07:43:50;;;;;;;8.43;3.28;;;;;;;;;;5109715;27;20438;-69
2021/04/28 07:46:17;;;;;;;8.63;4.47;;;;;;;;;;5109412;28;20031;-69
2021/04/28 07:48:43;;;;;;;8.48;4.35;;;;;;;;;;5108588;28;20044;-69
2021/04/28 07:52:03;;;;;;;10.35;4.20;;;;;;;;;;5108605;27;20354;-67
2021/04/28 07:54:29;;;;;;;11.05;4.60;;;;;;;;;;5099420;28;20028;-67
2021/04/28 07:58:20;;;;;;;9.35;3.85;;;;;;;;;;5109863;27;20434;-69
2021/04/28 08:00:47;;;;;;;8.02;4.20;;;;;;;;;;5108224;28;20054;-67
2021/04/28 08:03:13;;;;;;;12.43;3.92;;;;;;;;;;5110232;28;20024;-68
2021/04/28 08:05:39;;;;;;;12.63;3.72;;;;;;;;;;5108137;28;20472;-68
2021/04/28 08:08:07;;;;;;;9.38;4.25;;;;;;;;;;5107153;28;20024;-68
2021/04/28 08:10:33;;;;;;;11.70;3.72;;;;;;;;;;5107717;28;20024;-69
2021/04/28 08:13:01;;;;;;;8.43;4.10;;;;;;;;;;5101579;28;20023;-69
2021/04/28 08:15:35;;;;;;;8.80;3.80;;;;;;;;;;5109216;27;20373;-67
2021/04/28 08:18:02;;;;;;;9.50;4.80;;;;;;;;;;5107136;28;20462;-68
2021/04/28 08:20:28;;;;;;;8.27;3.97;;;;;;;;;;5108450;28;20051;-68
2021/04/28 08:22:54;;;;;;;8.05;4.35;;;;;;;;;;5107243;28;20053;-74
2021/04/28 08:25:23;;;;;;;8.10;3.78;;;;;;;;;;5087509;28;20107;-72
2021/04/28 08:27:50;;;;;;;9.65;3.97;;;;;;;;;;5048177;28;20020;-74
2021/04/28 08:31:02;;;;;;;12.85;4.28;;;;;;;;;;5010235;28;20490;-73
2021/04/28 08:33:28;;;;;;;11.00;4.30;;;;;;;;;;5064170;28;20099;-74
2021/04/28 08:35:54;;;;;;;6.78;3.10;;;;;;;;;;5064757;28;20025;-74
2021/04/28 08:39:29;;;;;;;7.05;2.95;;;;;;;;;;5105800;27;20381;-74
2021/04/28 08:41:56;;;;;;;8.27;3.28;;;;;;;;;;5119299;28;20027;-76
2021/04/28 08:44:22;;;;;;;5.70;2.67;;;;;;;;;;5129047;28;20011;-77
2021/04/28 08:46:50;;;;;;;5.00;2.40;;;;;;;;;;5127611;28;20398;-76
2021/04/28 08:49:16;;;;;;;3.95;2.25;;;;;;;;;;5129213;28;20471;-76
2021/04/28 08:51:43;;;;;;;9.07;3.17;;;;;;;;;;5117321;28;20102;-78
2021/04/28 08:54:09;;;;;;;5.80;3.05;;;;;;;;;;5108315;28;20107;-76
2021/04/28 08:56:52;;;;;;;7.78;3.13;;;;;;;;;;5109838;27;20385;-76
2021/04/28 08:59:45;;;;;;;6.57;2.83;;;;;;;;;;5109981;27;20422;-76
2021/04/28 09:02:23;;;;;;;6.13;2.65;;;;;;;;;;5109623;28;20444;-74
2021/04/28 09:07:38;;;;;;;5.97;2.80;;;;;;;;;;5106649;27;21128;-75
2021/04/28 09:10:09;;;;;;;7.68;2.97;;;;;;;;;;5106857;28;20035;-74
2021/04/28 09:12:36;;;;;;;5.05;2.40;;;;;;;;;;5108239;28;20107;-75
2021/04/28 09:15:03;;;;;;;7.32;2.90;;;;;;;;;;5107433;28;20472;-75
2021/04/28 09:17:29;;;;;;;5.15;2.30;;;;;;;;;;5108872;28;20023;-74
2021/04/28 09:20:15;;;;;;;6.18;2.85;;;;;;;;;;5108598;28;20024;-75
2021/04/28 09:28:31;;;;;;;5.32;2.67;;;;;;;;;;5110151;27;20385;-73
2021/04/28 09:33:10;;;;;;;3.58;2.10;;;;;;;;;;5110044;27;20858;-75
2021/04/28 09:35:36;;;;;;;5.72;2.70;;;;;;;;;;5109830;28;20059;-75
2021/04/28 09:38:31;;;;;;;5.47;2.60;;;;;;;;;;5110106;27;20434;-76
2021/04/28 09:40:59;;;;;;;4.75;2.30;;;;;;;;;;5108197;28;20040;-77
2021/04/28 09:43:36;;;;;;;8.30;2.53;;;;;;;;;;5110482;28;20069;-75
2021/04/28 09:46:02;;;;;;;5.00;2.30;;;;;;;;;;5109856;28;20038;-75
2021/04/28 09:49:47;;;;;;;4.13;2.22;;;;;;;;;;5109870;27;20414;-71
2021/04/28 09:52:24;;;;;;;5.30;2.50;;;;;;;;;;5107254;28;20034;-79
2021/04/28 09:54:51;;;;;;;4.75;1.98;;;;;;;;;;5107603;28;20028;-75
2021/04/28 09:59:49;;;;;;;7.32;2.85;;;;;;;;;;5109172;27;20392;-73
2021/04/28 10:02:29;;;;;;;6.18;2.88;;;;;;;;;;5107776;28;20157;-76
2021/04/28 10:05:14;;;;;;;6.10;2.80;;;;;;;;;;5108596;28;20023;-82
2021/04/28 10:07:41;;;;;;;6.30;2.85;;;;;;;;;;5109892;28;20038;-79
2021/04/28 10:10:08;;;;;;;5.60;2.33;;;;;;;;;;5108746;28;20016;-71
2021/04/28 10:12:34;;;;;;;7.85;2.38;;;;;;;;;;5107652;28;20345;-76
2021/04/28 10:15:01;;;;;;;5.55;2.50;;;;;;;;;;5106525;28;20032;-74
2021/04/28 10:17:28;;;;;;;4.97;2.45;;;;;;;;;;5110073;28;20026;-72
2021/04/28 10:19:57;;;;;;;4.75;2.08;;;;;;;;;;5110157;28;20028;-75
2021/04/28 10:22:24;;;;;;;4.38;2.30;;;;;;;;;;5109439;28;20511;-76
2021/04/28 10:24:51;;;;;;;4.60;2.30;;;;;;;;;;5108971;28;20031;-76
2021/04/28 10:27:18;;;;;;;3.78;2.10;;;;;;;;;;5111453;28;20016;-77
2021/04/28 10:29:45;;;;;;;7.05;3.40;;;;;;;;;;5112946;28;20020;-75
2021/04/28 10:32:15;;;;;;;6.28;2.72;;;;;;;;;;5114132;28;20027;-74
2021/04/28 10:34:50;;;;;;;4.80;2.65;;;;;;;;;;5113399;28;20096;-77
2021/04/28 10:38:42;;;;;;;6.32;2.30;;;;;;;;;;5112349;27;20119;-73
2021/04/28 10:41:28;;;;;;;5.18;2.20;;;;;;;;;;5095046;28;20029;-74
2021/04/28 10:43:54;;;;;;;4.72;2.10;;;;;;;;;;5106875;28;20055;-78
2021/04/28 10:46:23;;;;;;;4.18;2.33;;;;;;;;;;5116570;28;20081;-75
2021/04/28 10:48:49;;;;;;;5.68;2.67;;;;;;;;;;5112857;28;20023;-76
2021/04/28 10:51:34;;;;;;;6.80;2.40;;;;;;;;;;5114097;28;20028;-74
2021/04/28 10:54:19;;;;;;;6.78;2.65;;;;;;;;;;5109047;28;20040;-76
2021/04/28 10:56:58;;;;;;;4.53;2.42;;;;;;;;;;5111024;28;20030;-78
2021/04/28 10:59:48;;;;;;;12.00;3.65;;;;;;;;;;5110643;27;20809;-78
2021/04/28 11:02:15;;;;;;;7.22;2.53;;;;;;;;;;5109770;28;20038;-76
2021/04/28 11:04:48;;;;;;;11.77;3.90;;;;;;;;;;5111659;28;20024;-77
2021/04/28 11:07:15;;;;;;;6.22;2.30;;;;;;;;;;5110252;28;20059;-78
2021/04/28 11:09:41;;;;;;;7.85;2.30;;;;;;;;;;5111699;28;20016;-78
2021/04/28 11:12:07;;;;;;;8.65;2.60;;;;;;;;;;5111130;28;20024;-76
2021/04/28 11:14:34;;;;;;;16.20;3.28;;;;;;;;;;5114279;28;20044;-75
2021/04/28 11:17:02;;;;;;;4.72;1.90;;;;;;;;;;5110533;28;20024;-76
2021/04/28 11:19:33;;;;;;;5.80;2.03;;;;;;;;;;5109677;28;20035;-76
2021/04/28 11:22:24;;;;;;;4.97;2.40;;;;;;;;;;5109097;28;20591;-76
2021/04/28 11:24:55;;;;;;;4.88;2.22;;;;;;;;;;5107884;28;20050;-77
2021/04/28 11:27:41;;;;;;;5.85;2.60;;;;;;;;;;5107214;28;20038;-78
2021/04/28 11:30:20;;;;;;;6.43;2.15;;;;;;;;;;5107364;28;20043;-76
2021/04/28 11:33:05;;;;;;;6.57;2.20;;;;;;;;;;5105578;28;20115;-79
2021/04/28 11:35:31;;;;;;;6.93;2.28;;;;;;;;;;5108063;28;20027;-78
2021/04/28 11:38:09;;;;;;;4.88;2.38;;;;;;;;;;5108520;28;20030;-81
2021/04/28 11:40:54;;;;;;;3.22;2.10;;;;;;;;;;5110391;28;20375;-79
2021/04/28 11:43:21;;;;;;;7.03;2.40;;;;;;;;;;5109681;28;20023;-78
2021/04/28 11:45:47;;;;;;;4.97;2.67;;;;;;;;;;5109992;28;20434;-79
2021/04/28 11:48:21;;;;;;;7.18;2.38;;;;;;;;;;5107984;28;20499;-77
2021/04/28 11:50:48;;;;;;;4.32;1.95;;;;;;;;;;5107055;28;20103;-76
2021/04/28 11:53:14;;;;;;;6.07;2.67;;;;;;;;;;5106117;28;20060;-76
2021/04/28 11:55:41;;;;;;;4.15;2.63;;;;;;;;;;5102161;28;20035;-76
2021/04/28 11:58:20;;;;;;;5.95;2.08;;;;;;;;;;5100955;28;20043;-78
2021/04/28 12:00:46;;;;;;;4.15;2.15;;;;;;;;;;5107966;28;20016;-78
2021/04/28 12:03:13;;;;;;;5.22;2.10;;;;;;;;;;5109710;28;20028;-79
2021/04/28 12:05:39;;;;;;;4.25;2.00;;;;;;;;;;5109683;28;20088;-79
2021/04/28 12:08:05;;;;;;;5.20;2.00;;;;;;;;;;5111207;28;20020;-79
2021/04/28 12:10:31;;;;;;;6.00;2.60;;;;;;;;;;5100252;28;20032;-79
2021/04/28 12:12:58;;;;;;;6.05;2.80;;;;;;;;;;5096085;28;20099;-79
2021/04/28 12:15:24;;;;;;;10.45;2.70;;;;;;;;;;5091443;28;20039;-78
2021/04/28 12:17:53;;;;;;;4.88;1.95;;;;;;;;;;5098566;28;20062;-78
2021/04/28 12:20:21;;;;;;;8.95;2.88;;;;;;;;;;5096299;28;20020;-77
2021/04/28 12:22:48;;;;;;;5.65;2.50;;;;;;;;;;5096215;28;20023;-78
2021/04/28 12:25:15;;;;;;;3.78;2.00;;;;;;;;;;5095516;28;20020;-78
2021/04/28 12:27:45;;;;;;;5.75;2.30;;;;;;;;;;5095192;28;20019;-78
2021/04/28 12:30:14;;;;;;;5.35;2.55;;;;;;;;;;5094453;28;20177;-79
2021/04/28 12:32:44;;;;;;;5.80;2.38;;;;;;;;;;5095683;28;20024;-79
2021/04/28 12:35:15;;;;;;;5.10;2.70;;;;;;;;;;5095307;28;20039;-79
2021/04/28 12:37:42;;;;;;;5.25;2.03;;;;;;;;;;5095341;28;20050;-79
2021/04/28 12:40:10;;;;;;;4.57;2.15;;;;;;;;;;5096089;28;20028;-80
2021/04/28 12:42:38;;;;;;;5.97;3.17;;;;;;;;;;5097033;28;20077;-78
2021/04/28 12:45:09;;;;;;;4.22;2.08;;;;;;;;;;5095104;28;20020;-78
2021/04/28 12:47:35;;;;;;;11.57;2.50;;;;;;;;;;5094562;28;20051;-77
2021/04/28 12:50:05;;;;;;;6.93;2.60;;;;;;;;;;5095029;28;20032;-78
2021/04/28 12:52:36;;;;;;;10.45;4.28;;;;;;;;;;5095051;28;20073;-77
2021/04/28 12:55:20;;;;;;;9.77;3.90;;;;;;;;;;5094914;28;20039;-77
2021/04/28 12:57:54;;;;;;;8.32;2.38;;;;;;;;;;5093506;28;20044;-77
2021/04/28 13:00:21;;;;;;;7.22;2.85;;;;;;;;;;5095042;28;20020;-77
2021/04/28 13:03:03;;;;;;;6.78;3.08;;;;;;;;;;5096343;28;20044;-76
2021/04/28 13:05:36;;;;;;;8.50;2.92;;;;;;;;;;5094877;28;20028;-78
2021/04/28 13:08:19;;;;;;;8.88;3.60;;;;;;;;;;5093711;28;20024;-77
2021/04/28 13:10:45;;;;;;;;;;;;;;;;;;5093623;28;20483;-77
2021/04/28 13:13:31;;;;;;;11.30;3.65;;;;;;;;;;5094789;28;19911;-77
2021/04/28 13:15:57;;;;;;;8.13;3.13;;;;;;;;;;5094094;28;20021;-76
2021/04/28 13:18:23;;;;;;;9.93;3.35;;;;;;;;;;5094567;28;20032;-75
2021/04/28 13:20:50;;;;;;;10.30;2.90;;;;;;;;;;5094120;28;20035;-76
2021/04/28 13:23:17;;;;;;;8.63;3.25;;;;;;;;;;5093545;28;20476;-76
2021/04/28 13:25:59;;;;;;;9.73;3.03;;;;;;;;;;5094340;28;20078;-76
2021/04/28 13:28:28;;;;;;;7.20;3.05;;;;;;;;;;5094217;28;20437;-77
2021/04/28 13:31:13;;;;;;;4.70;2.72;;;;;;;;;;5093919;28;20430;-77
2021/04/28 13:33:40;;;;;;;8.43;3.08;;;;;;;;;;5094056;28;20024;-76
2021/04/28 13:36:06;;;;;;;6.35;2.35;;;;;;;;;;5094157;28;20380;-76
2021/04/28 13:38:49;;;;;;;10.80;3.38;;;;;;;;;;5093786;28;20476;-76
2021/04/28 13:41:15;;;;;;;4.97;3.13;;;;;;;;;;5092844;28;20028;-78
2021/04/28 13:43:41;;;;;;;7.25;3.53;;;;;;;;;;5093609;28;20525;-77
2021/04/28 13:46:08;;;;;;;7.28;3.20;;;;;;;;;;5093903;28;20039;-77
2021/04/28 13:48:34;;;;;;;4.47;2.53;;;;;;;;;;5093723;28;20024;-77
2021/04/28 13:51:00;;;;;;;7.72;3.08;;;;;;;;;;5093359;28;20024;-78
2021/04/28 13:53:26;;;;;;;10.00;4.05;;;;;;;;;;5093744;28;20048;-77
2021/04/28 13:55:54;;;;;;;13.10;5.85;;;;;;;;;;5092216;28;20050;-76
2021/04/28 13:58:20;;;;;;;13.38;6.30;;;;;;;;;;5093044;28;20054;-77
2021/04/28 14:00:47;;;;;;;13.00;5.57;;;;;;;;;;5092570;28;20380;-76
2021/04/28 14:03:13;;;;;;;9.85;5.10;;;;;;;;;;5093592;28;20024;-77
2021/04/28 14:05:39;;;;;;;13.98;4.85;;;;;;;;;;5093117;28;20019;-78
2021/04/28 14:08:05;;;;;;;13.48;6.63;;;;;;;;;;5093414;28;20044;-78
2021/04/28 14:10:32;;;;;;;11.02;6.00;;;;;;;;;;5092071;28;20024;-77
2021/04/28 14:12:58;;;;;;;8.52;4.93;;;;;;;;;;5091702;28;20286;-77
2021/04/28 14:15:24;;;;;;;10.25;4.28;;;;;;;;;;5094338;28;20473;-77
2021/04/28 14:17:50;;;;;;;9.20;4.68;;;;;;;;;;5095833;28;20027;-77
2021/04/28 14:20:17;;;;;;;10.50;4.38;;;;;;;;;;5095123;28;20085;-78
2021/04/28 14:22:43;;;;;;;10.55;4.35;;;;;;;;;;5095481;28;20016;-76
2021/04/28 14:25:10;;;;;;;8.93;4.18;;;;;;;;;;5093410;28;20019;-77
2021/04/28 14:27:36;;;;;;;10.32;4.05;;;;;;;;;;5091317;28;20488;-76
2021/04/28 14:30:03;;;;;;;7.18;3.50;;;;;;;;;;5091824;28;20035;-76
2021/04/28 14:32:30;;;;;;;7.47;4.07;;;;;;;;;;5092901;28;20027;-77
2021/04/28 14:34:56;;;;;;;11.68;3.90;;;;;;;;;;5092707;28;20020;-77
2021/04/28 14:37:22;;;;;;;7.30;3.20;;;;;;;;;;5091933;28;20029;-77
2021/04/28 14:39:48;;;;;;;9.75;4.05;;;;;;;;;;5092361;28;20395;-76
2021/04/28 14:42:15;;;;;;;13.40;7.05;;;;;;;;;;5092914;28;20024;-77
2021/04/28 14:44:41;;;;;;;16.77;9.32;;;;;;;;;;5092878;28;20024;-74
2021/04/28 14:47:07;;;;;;;14.00;5.80;;;;;;;;;;5092397;28;20453;-77
2021/04/28 14:49:33;;;;;;;12.82;5.22;;;;;;;;;;5091136;28;20031;-76
2021/04/28 14:51:59;;;;;;;11.95;5.93;;;;;;;;;;5089656;28;20030;-77
2021/04/28 14:54:26;;;;;;;8.05;4.88;;;;;;;;;;5091515;28;20498;-78
2021/04/28 14:56:52;;;;;;;11.95;5.13;;;;;;;;;;5091370;28;20028;-78
2021/04/28 14:59:18;;;;;;;7.88;4.55;;;;;;;;;;5091222;28;20113;-76
2021/04/28 15:01:44;;;;;;;9.90;4.82;;;;;;;;;;5092276;28;20114;-77
2021/04/28 15:04:46;;;;;;;8.73;3.95;;;;;;;;;;5110527;27;20377;-77
2021/04/28 15:07:12;;;;;;;9.48;4.28;;;;;;;;;;5109154;28;20024;-77
2021/04/28 15:09:38;;;;;;;6.70;3.80;;;;;;;;;;5110201;28;20443;-77
2021/04/28 15:12:04;;;;;;;8.10;3.70;;;;;;;;;;5109341;28;20047;-78
2021/04/28 15:14:31;;;;;;;11.57;4.45;;;;;;;;;;5110647;28;20612;-77
2021/04/28 15:16:57;;;;;;;12.65;5.53;;;;;;;;;;5110027;28;20077;-78
2021/04/28 15:19:23;;;;;;;9.27;4.78;;;;;;;;;;5110405;28;20429;-77
2021/04/28 15:21:49;;;;;;;14.50;6.10;;;;;;;;;;5110247;28;20024;-76
2021/04/28 15:24:16;;;;;;;12.27;5.25;;;;;;;;;;5110491;28;20047;-77
2021/04/28 15:26:42;;;;;;;8.05;3.60;;;;;;;;;;5108949;28;20429;-77
2021/04/28 15:29:09;;;;;;;11.80;4.22;;;;;;;;;;5108515;28;20066;-77
2021/04/28 15:31:36;;;;;;;10.85;4.32;;;;;;;;;;5110043;28;20383;-77
2021/04/28 15:34:03;;;;;;;7.88;4.13;;;;;;;;;;5110101;28;20372;-77
2021/04/28 15:36:30;;;;;;;7.15;4.53;;;;;;;;;;5109817;28;20069;-78
2021/04/28 15:38:56;;;;;;;8.48;3.80;;;;;;;;;;5109984;28;20019;-77